sensor_id;sensor_type;location;lat;lon;timestamp;pressure;altitude;pressure_sealevel;temperature;humidity
70468;BME280;57934;51.532;7.684;2023-05-29T00:01:22;100882.44;;;14.12;68.25
70468;BME280;57934;51.532;7.684;2023-05-29T00:03:50;100888.53;;;14.05;68.71
70468;BME280;57934;51.532;7.684;2023-05-29T00:06:16;100883.25;;;14.12;68.43
70468;BME280;57934;51.532;7.684;2023-05-29T00:08:42;100892.63;;;14.08;68.61
70468;BME280;57934;51.532;7.684;2023-05-29T00:11:08;100894.88;;;14.11;68.35
70468;BME280;57934;51.532;7.684;2023-05-29T00:13:34;100895.66;;;13.98;69.16
70468;BME280;57934;51.532;7.684;2023-05-29T00:16:01;100897.28;;;13.93;69.72
70468;BME280;57934;51.532;7.684;2023-05-29T00:18:29;100893.34;;;13.75;69.89
70468;BME280;57934;51.532;7.684;2023-05-29T00:20:55;100881.13;;;13.81;70.16
70468;BME280;57934;51.532;7.684;2023-05-29T00:23:21;100892.34;;;13.76;70.43
70468;BME280;57934;51.532;7.684;2023-05-29T00:25:47;100887.81;;;13.64;70.83
70468;BME280;57934;51.532;7.684;2023-05-29T00:28:13;100894.69;;;13.51;71.62
70468;BME280;57934;51.532;7.684;2023-05-29T00:30:39;100884.75;;;13.60;71.26
70468;BME280;57934;51.532;7.684;2023-05-29T00:33:05;100883.91;;;13.53;71.63
70468;BME280;57934;51.532;7.684;2023-05-29T00:35:32;100892.06;;;13.51;71.75
70468;BME280;57934;51.532;7.684;2023-05-29T00:37:58;100899.28;;;13.36;73.02
70468;BME280;57934;51.532;7.684;2023-05-29T00:40:25;100904.59;;;13.36;72.87
70468;BME280;57934;51.532;7.684;2023-05-29T00:42:51;100914.34;;;13.29;73.37
70468;BME280;57934;51.532;7.684;2023-05-29T00:45:17;100908.22;;;13.28;73.18
70468;BME280;57934;51.532;7.684;2023-05-29T00:47:44;100918.44;;;13.31;73.47
70468;BME280;57934;51.532;7.684;2023-05-29T00:50:12;100924.50;;;13.25;73.39
70468;BME280;57934;51.532;7.684;2023-05-29T00:52:40;100923.91;;;13.30;73.17
70468;BME280;57934;51.532;7.684;2023-05-29T00:55:08;100929.50;;;13.13;73.66
70468;BME280;57934;51.532;7.684;2023-05-29T00:57:35;100927.41;;;13.02;73.80
70468;BME280;57934;51.532;7.684;2023-05-29T01:00:03;100936.53;;;13.00;74.17
70468;BME280;57934;51.532;7.684;2023-05-29T01:02:36;100933.25;;;12.98;73.78
70468;BME280;57934;51.532;7.684;2023-05-29T01:05:03;100937.22;;;12.59;75.07
70468;BME280;57934;51.532;7.684;2023-05-29T01:07:30;100934.97;;;12.84;74.45
70468;BME280;57934;51.532;7.684;2023-05-29T01:09:56;100941.50;;;12.60;74.19
70468;BME280;57934;51.532;7.684;2023-05-29T01:12:31;100934.72;;;12.51;75.09
70468;BME280;57934;51.532;7.684;2023-05-29T01:15:04;100939.44;;;12.55;74.70
70468;BME280;57934;51.532;7.684;2023-05-29T01:23:07;100942.94;;;12.62;75.40
70468;BME280;57934;51.532;7.684;2023-05-29T01:28:27;100948.25;;;12.41;76.22
70468;BME280;57934;51.532;7.684;2023-05-29T01:30:57;100956.84;;;12.43;76.46
70468;BME280;57934;51.532;7.684;2023-05-29T01:33:23;100959.03;;;12.39;77.23
70468;BME280;57934;51.532;7.684;2023-05-29T01:35:50;100958.59;;;12.36;77.19
70468;BME280;57934;51.532;7.684;2023-05-29T01:38:16;100958.31;;;12.31;77.44
70468;BME280;57934;51.532;7.684;2023-05-29T01:40:43;100965.94;;;12.19;77.61
70468;BME280;57934;51.532;7.684;2023-05-29T01:43:12;100969.84;;;12.23;77.77
70468;BME280;57934;51.532;7.684;2023-05-29T01:45:39;100973.97;;;12.11;78.90
70468;BME280;57934;51.532;7.684;2023-05-29T01:48:06;100972.00;;;11.98;78.56
70468;BME280;57934;51.532;7.684;2023-05-29T01:50:34;100976.91;;;12.01;78.70
70468;BME280;57934;51.532;7.684;2023-05-29T01:53:01;100974.00;;;11.96;78.74
70468;BME280;57934;51.532;7.684;2023-05-29T01:55:27;100975.56;;;11.90;78.22
70468;BME280;57934;51.532;7.684;2023-05-29T01:57:53;100988.75;;;11.76;78.54
70468;BME280;57934;51.532;7.684;2023-05-29T02:00:20;100985.22;;;11.54;78.98
70468;BME280;57934;51.532;7.684;2023-05-29T02:02:47;100988.56;;;11.47;78.68
70468;BME280;57934;51.532;7.684;2023-05-29T02:05:14;100987.84;;;11.54;78.57
70468;BME280;57934;51.532;7.684;2023-05-29T02:07:40;100993.31;;;11.52;77.90
70468;BME280;57934;51.532;7.684;2023-05-29T02:10:07;100986.84;;;11.25;78.52
70468;BME280;57934;51.532;7.684;2023-05-29T02:12:33;100981.19;;;11.28;78.78
70468;BME280;57934;51.532;7.684;2023-05-29T02:14:59;100980.03;;;11.31;78.52
70468;BME280;57934;51.532;7.684;2023-05-29T02:17:26;100981.91;;;11.22;78.12
70468;BME280;57934;51.532;7.684;2023-05-29T02:19:53;100987.84;;;11.24;78.39
70468;BME280;57934;51.532;7.684;2023-05-29T02:22:19;100992.22;;;11.32;77.96
70468;BME280;57934;51.532;7.684;2023-05-29T02:24:45;100986.28;;;11.30;78.05
70468;BME280;57934;51.532;7.684;2023-05-29T02:27:11;100989.16;;;11.05;78.92
70468;BME280;57934;51.532;7.684;2023-05-29T02:29:37;100990.72;;;10.99;79.35
70468;BME280;57934;51.532;7.684;2023-05-29T02:32:04;100990.41;;;10.94;78.90
70468;BME280;57934;51.532;7.684;2023-05-29T02:34:33;101001.03;;;11.09;79.02
70468;BME280;57934;51.532;7.684;2023-05-29T02:36:59;100993.09;;;11.09;78.87
70468;BME280;57934;51.532;7.684;2023-05-29T02:39:25;100996.81;;;11.15;78.35
70468;BME280;57934;51.532;7.684;2023-05-29T02:41:51;101008.81;;;11.03;78.76
70468;BME280;57934;51.532;7.684;2023-05-29T02:44:17;101004.69;;;10.85;79.79
70468;BME280;57934;51.532;7.684;2023-05-29T02:46:44;101000.13;;;10.94;79.43
70468;BME280;57934;51.532;7.684;2023-05-29T02:49:10;101005.72;;;10.99;79.39
70468;BME280;57934;51.532;7.684;2023-05-29T02:51:36;101000.34;;;10.92;79.79
70468;BME280;57934;51.532;7.684;2023-05-29T02:54:03;101008.59;;;10.89;79.11
70468;BME280;57934;51.532;7.684;2023-05-29T02:56:29;101003.41;;;10.81;79.85
70468;BME280;57934;51.532;7.684;2023-05-29T02:58:55;101000.69;;;10.89;79.56
70468;BME280;57934;51.532;7.684;2023-05-29T03:01:21;101009.88;;;10.93;79.97
70468;BME280;57934;51.532;7.684;2023-05-29T03:03:48;101001.69;;;10.88;79.95
70468;BME280;57934;51.532;7.684;2023-05-29T03:06:14;101009.06;;;10.93;79.72
70468;BME280;57934;51.532;7.684;2023-05-29T03:08:42;101007.94;;;10.87;79.75
70468;BME280;57934;51.532;7.684;2023-05-29T03:11:11;101013.69;;;10.91;79.62
70468;BME280;57934;51.532;7.684;2023-05-29T03:13:38;101007.13;;;10.87;79.44
70468;BME280;57934;51.532;7.684;2023-05-29T03:16:07;101010.88;;;10.92;79.69
70468;BME280;57934;51.532;7.684;2023-05-29T03:18:34;101010.78;;;10.86;79.74
70468;BME280;57934;51.532;7.684;2023-05-29T03:21:01;101007.47;;;10.84;79.86
70468;BME280;57934;51.532;7.684;2023-05-29T03:23:28;101009.88;;;10.93;79.55
70468;BME280;57934;51.532;7.684;2023-05-29T03:25:54;101010.16;;;10.98;79.45
70468;BME280;57934;51.532;7.684;2023-05-29T03:28:21;101014.47;;;10.99;79.64
70468;BME280;57934;51.532;7.684;2023-05-29T03:30:48;101006.34;;;11.01;78.97
70468;BME280;57934;51.532;7.684;2023-05-29T03:33:18;101004.38;;;11.03;78.97
70468;BME280;57934;51.532;7.684;2023-05-29T03:36:04;101007.91;;;10.95;79.45
70468;BME280;57934;51.532;7.684;2023-05-29T03:38:32;101004.41;;;10.95;79.68
70468;BME280;57934;51.532;7.684;2023-05-29T03:41:00;100995.78;;;11.01;79.50
70468;BME280;57934;51.532;7.684;2023-05-29T03:43:26;100998.97;;;10.96;79.37
70468;BME280;57934;51.532;7.684;2023-05-29T03:45:53;100994.50;;;10.97;79.13
70468;BME280;57934;51.532;7.684;2023-05-29T03:48:20;101000.03;;;10.87;79.76
70468;BME280;57934;51.532;7.684;2023-05-29T03:50:47;100998.50;;;10.93;79.15
70468;BME280;57934;51.532;7.684;2023-05-29T03:53:17;101009.28;;;10.83;79.11
70468;BME280;57934;51.532;7.684;2023-05-29T03:55:43;101002.75;;;10.79;79.52
70468;BME280;57934;51.532;7.684;2023-05-29T03:58:10;101011.94;;;10.83;79.01
70468;BME280;57934;51.532;7.684;2023-05-29T04:00:38;101028.47;;;10.77;79.76
70468;BME280;57934;51.532;7.684;2023-05-29T04:03:05;101029.41;;;10.84;79.19
70468;BME280;57934;51.532;7.684;2023-05-29T04:05:32;101026.59;;;10.86;79.42
70468;BME280;57934;51.532;7.684;2023-05-29T04:07:58;101034.91;;;10.97;79.25
70468;BME280;57934;51.532;7.684;2023-05-29T04:10:24;101037.38;;;10.99;79.33
70468;BME280;57934;51.532;7.684;2023-05-29T04:12:50;101029.41;;;11.07;78.44
70468;BME280;57934;51.532;7.684;2023-05-29T04:15:17;101034.75;;;10.99;78.71
70468;BME280;57934;51.532;7.684;2023-05-29T04:17:43;101035.38;;;11.01;78.76
70468;BME280;57934;51.532;7.684;2023-05-29T04:20:10;101031.75;;;11.02;79.14
70468;BME280;57934;51.532;7.684;2023-05-29T04:22:37;101021.19;;;11.02;79.02
70468;BME280;57934;51.532;7.684;2023-05-29T04:25:04;101031.06;;;10.85;79.19
70468;BME280;57934;51.532;7.684;2023-05-29T04:27:31;101035.09;;;10.96;79.15
70468;BME280;57934;51.532;7.684;2023-05-29T04:30:05;101025.72;;;10.93;78.47
70468;BME280;57934;51.532;7.684;2023-05-29T04:32:35;101027.66;;;10.99;79.14
70468;BME280;57934;51.532;7.684;2023-05-29T04:35:02;101026.09;;;11.05;78.76
70468;BME280;57934;51.532;7.684;2023-05-29T04:37:30;101027.19;;;10.96;78.55
70468;BME280;57934;51.532;7.684;2023-05-29T04:39:58;101023.53;;;10.97;78.48
70468;BME280;57934;51.532;7.684;2023-05-29T04:42:27;101023.63;;;10.89;79.31
70468;BME280;57934;51.532;7.684;2023-05-29T04:44:53;101034.91;;;10.97;78.69
70468;BME280;57934;51.532;7.684;2023-05-29T04:47:20;101043.88;;;11.11;78.76
70468;BME280;57934;51.532;7.684;2023-05-29T04:49:48;101042.16;;;11.18;78.30
70468;BME280;57934;51.532;7.684;2023-05-29T04:52:16;101052.19;;;11.23;77.71
70468;BME280;57934;51.532;7.684;2023-05-29T04:54:42;101046.50;;;11.11;77.89
70468;BME280;57934;51.532;7.684;2023-05-29T04:57:09;101050.78;;;11.12;78.28
70468;BME280;57934;51.532;7.684;2023-05-29T04:59:36;101055.78;;;11.07;78.76
70468;BME280;57934;51.532;7.684;2023-05-29T05:02:02;101059.44;;;11.06;78.54
70468;BME280;57934;51.532;7.684;2023-05-29T05:04:29;101060.94;;;11.01;78.17
70468;BME280;57934;51.532;7.684;2023-05-29T05:06:56;101056.06;;;11.12;78.35
70468;BME280;57934;51.532;7.684;2023-05-29T05:09:23;101071.84;;;11.20;77.53
70468;BME280;57934;51.532;7.684;2023-05-29T05:11:51;101066.38;;;11.22;78.10
70468;BME280;57934;51.532;7.684;2023-05-29T05:14:17;101067.72;;;11.41;77.37
70468;BME280;57934;51.532;7.684;2023-05-29T05:16:47;101065.69;;;11.43;77.28
70468;BME280;57934;51.532;7.684;2023-05-29T05:19:13;101067.53;;;11.42;76.56
70468;BME280;57934;51.532;7.684;2023-05-29T05:21:41;101069.84;;;11.60;76.59
70468;BME280;57934;51.532;7.684;2023-05-29T05:24:07;101066.72;;;11.57;76.74
70468;BME280;57934;51.532;7.684;2023-05-29T05:26:37;101073.13;;;11.62;75.92
70468;BME280;57934;51.532;7.684;2023-05-29T05:29:05;101073.38;;;11.53;76.18
70468;BME280;57934;51.532;7.684;2023-05-29T05:31:33;101077.94;;;11.59;76.17
70468;BME280;57934;51.532;7.684;2023-05-29T05:34:09;101069.13;;;11.66;76.07
70468;BME280;57934;51.532;7.684;2023-05-29T05:36:35;101067.69;;;12.08;75.02
70468;BME280;57934;51.532;7.684;2023-05-29T05:39:08;101076.16;;;12.33;73.68
70468;BME280;57934;51.532;7.684;2023-05-29T05:41:35;101071.38;;;12.44;73.52
70468;BME280;57934;51.532;7.684;2023-05-29T05:44:01;101068.56;;;12.66;72.06
70468;BME280;57934;51.532;7.684;2023-05-29T05:46:37;101079.34;;;12.29;72.84
70468;BME280;57934;51.532;7.684;2023-05-29T05:49:03;101076.13;;;12.70;71.77
70468;BME280;57934;51.532;7.684;2023-05-29T05:51:31;101068.97;;;13.28;69.68
70468;BME280;57934;51.532;7.684;2023-05-29T05:54:00;101058.00;;;13.59;68.30
70468;BME280;57934;51.532;7.684;2023-05-29T05:56:27;101064.09;;;13.88;66.87
70468;BME280;57934;51.532;7.684;2023-05-29T05:58:53;101059.88;;;13.65;67.26
70468;BME280;57934;51.532;7.684;2023-05-29T06:01:20;101051.63;;;13.53;66.96
70468;BME280;57934;51.532;7.684;2023-05-29T06:03:46;101047.88;;;13.20;68.66
70468;BME280;57934;51.532;7.684;2023-05-29T06:06:12;101057.38;;;13.29;68.70
70468;BME280;57934;51.532;7.684;2023-05-29T06:08:42;101058.06;;;13.38;69.27
70468;BME280;57934;51.532;7.684;2023-05-29T06:11:09;101056.34;;;13.51;68.21
70468;BME280;57934;51.532;7.684;2023-05-29T06:13:37;101064.78;;;13.40;68.83
70468;BME280;57934;51.532;7.684;2023-05-29T06:16:08;101059.50;;;13.40;69.51
70468;BME280;57934;51.532;7.684;2023-05-29T06:18:36;101070.44;;;13.58;68.13
70468;BME280;57934;51.532;7.684;2023-05-29T06:21:02;101075.22;;;13.70;67.82
70468;BME280;57934;51.532;7.684;2023-05-29T06:23:29;101074.63;;;13.46;68.81
70468;BME280;57934;51.532;7.684;2023-05-29T06:25:56;101081.03;;;13.87;67.15
70468;BME280;57934;51.532;7.684;2023-05-29T06:28:22;101084.91;;;13.91;66.61
70468;BME280;57934;51.532;7.684;2023-05-29T06:30:49;101084.53;;;13.94;67.12
70468;BME280;57934;51.532;7.684;2023-05-29T06:33:15;101081.50;;;13.69;67.38
70468;BME280;57934;51.532;7.684;2023-05-29T06:35:41;101072.34;;;13.22;69.04
70468;BME280;57934;51.532;7.684;2023-05-29T06:38:08;101074.56;;;13.68;67.63
70468;BME280;57934;51.532;7.684;2023-05-29T06:40:34;101087.75;;;13.89;67.24
70468;BME280;57934;51.532;7.684;2023-05-29T06:43:01;101081.25;;;14.33;66.48
70468;BME280;57934;51.532;7.684;2023-05-29T06:45:43;101077.75;;;14.26;66.42
70468;BME280;57934;51.532;7.684;2023-05-29T06:48:09;101076.69;;;14.20;67.03
70468;BME280;57934;51.532;7.684;2023-05-29T06:50:38;101073.66;;;14.23;66.11
70468;BME280;57934;51.532;7.684;2023-05-29T06:53:30;101075.16;;;13.98;67.46
70468;BME280;57934;51.532;7.684;2023-05-29T06:55:56;101067.47;;;13.75;67.79
70468;BME280;57934;51.532;7.684;2023-05-29T06:58:22;101073.00;;;14.15;67.06
70468;BME280;57934;51.532;7.684;2023-05-29T07:00:49;101077.72;;;14.19;66.78
70468;BME280;57934;51.532;7.684;2023-05-29T07:03:27;101070.19;;;14.23;67.08
70468;BME280;57934;51.532;7.684;2023-05-29T07:05:54;101072.88;;;14.29;67.05
70468;BME280;57934;51.532;7.684;2023-05-29T07:08:21;101085.25;;;14.70;65.99
70468;BME280;57934;51.532;7.684;2023-05-29T07:10:47;101074.72;;;15.23;65.09
70468;BME280;57934;51.532;7.684;2023-05-29T07:13:15;101081.47;;;15.33;63.92
70468;BME280;57934;51.532;7.684;2023-05-29T07:15:42;101084.31;;;15.71;62.70
70468;BME280;57934;51.532;7.684;2023-05-29T07:18:09;101077.94;;;15.85;61.98
70468;BME280;57934;51.532;7.684;2023-05-29T07:20:36;101080.63;;;15.59;63.08
70468;BME280;57934;51.532;7.684;2023-05-29T07:23:02;101088.41;;;15.54;62.45
70468;BME280;57934;51.532;7.684;2023-05-29T07:25:30;101088.19;;;15.88;61.62
70468;BME280;57934;51.532;7.684;2023-05-29T07:27:56;101093.72;;;15.14;63.63
70468;BME280;57934;51.532;7.684;2023-05-29T07:30:22;101101.28;;;15.43;63.66
70468;BME280;57934;51.532;7.684;2023-05-29T07:32:49;101106.41;;;15.25;63.60
70468;BME280;57934;51.532;7.684;2023-05-29T07:35:16;101108.66;;;15.74;62.61
70468;BME280;57934;51.532;7.684;2023-05-29T07:37:43;101112.72;;;15.37;63.12
70468;BME280;57934;51.532;7.684;2023-05-29T07:40:13;101121.34;;;15.52;62.57
70468;BME280;57934;51.532;7.684;2023-05-29T07:42:59;101108.63;;;15.94;61.83
70468;BME280;57934;51.532;7.684;2023-05-29T07:45:36;101112.06;;;16.15;61.01
70468;BME280;57934;51.532;7.684;2023-05-29T07:48:02;101100.31;;;17.12;59.32
70468;BME280;57934;51.532;7.684;2023-05-29T07:50:29;101104.97;;;16.92;58.83
70468;BME280;57934;51.532;7.684;2023-05-29T07:52:56;101094.28;;;17.24;57.34
70468;BME280;57934;51.532;7.684;2023-05-29T07:55:23;101095.34;;;17.66;56.66
70468;BME280;57934;51.532;7.684;2023-05-29T07:57:49;101095.84;;;18.36;54.21
70468;BME280;57934;51.532;7.684;2023-05-29T08:00:17;101103.13;;;18.78;53.02
70468;BME280;57934;51.532;7.684;2023-05-29T08:02:46;101102.00;;;18.37;53.83
70468;BME280;57934;51.532;7.684;2023-05-29T08:05:30;101099.25;;;20.21;50.59
70468;BME280;57934;51.532;7.684;2023-05-29T08:08:04;101106.13;;;20.17;49.84
70468;BME280;57934;51.532;7.684;2023-05-29T08:10:33;101117.22;;;21.07;47.95
70468;BME280;57934;51.532;7.684;2023-05-29T08:13:05;101117.69;;;20.87;47.51
70468;BME280;57934;51.532;7.684;2023-05-29T08:16:01;101110.66;;;21.14;46.67
70468;BME280;57934;51.532;7.684;2023-05-29T08:18:30;101109.28;;;21.62;46.09
70468;BME280;57934;51.532;7.684;2023-05-29T08:20:57;101112.69;;;21.75;44.94
70468;BME280;57934;51.532;7.684;2023-05-29T08:23:23;101119.63;;;22.31;44.51
70468;BME280;57934;51.532;7.684;2023-05-29T08:25:49;101117.59;;;21.83;44.19
70468;BME280;57934;51.532;7.684;2023-05-29T08:28:15;101118.16;;;22.95;43.32
70468;BME280;57934;51.532;7.684;2023-05-29T08:30:41;101113.50;;;22.63;42.97
70468;BME280;57934;51.532;7.684;2023-05-29T08:33:09;101111.31;;;22.60;42.62
70468;BME280;57934;51.532;7.684;2023-05-29T08:35:35;101117.53;;;22.38;42.53
70468;BME280;57934;51.532;7.684;2023-05-29T08:38:01;101109.66;;;23.08;42.40
70468;BME280;57934;51.532;7.684;2023-05-29T08:40:27;101111.03;;;23.48;41.15
70468;BME280;57934;51.532;7.684;2023-05-29T08:43:03;101105.28;;;22.97;41.85
70468;BME280;57934;51.532;7.684;2023-05-29T08:45:34;101097.47;;;22.46;42.48
70468;BME280;57934;51.532;7.684;2023-05-29T08:48:01;62908.66;;;-145.37;100.00
70468;BME280;57934;51.532;7.684;2023-05-29T08:50:27;62908.66;;;-145.37;100.00
70468;BME280;57934;51.532;7.684;2023-05-29T08:52:53;62908.66;;;-145.37;100.00
70468;BME280;57934;51.532;7.684;2023-05-29T08:55:19;62908.66;;;-145.37;100.00
70468;BME280;57934;51.532;7.684;2023-05-29T08:57:46;62908.66;;;-145.37;100.00
70468;BME280;57934;51.532;7.684;2023-05-29T09:00:13;62908.66;;;-145.37;100.00
70468;BME280;57934;51.532;7.684;2023-05-29T09:02:42;62908.66;;;-145.37;100.00
70468;BME280;57934;51.532;7.684;2023-05-29T09:05:11;62908.66;;;-145.37;100.00
70468;BME280;57934;51.532;7.684;2023-05-29T09:07:38;62908.66;;;-145.37;100.00
70468;BME280;57934;51.532;7.684;2023-05-29T09:10:06;62908.66;;;-145.37;100.00
70468;BME280;57934;51.532;7.684;2023-05-29T09:12:33;62908.66;;;-145.37;100.00
70468;BME280;57934;51.532;7.684;2023-05-29T09:15:00;62908.66;;;-145.37;100.00
70468;BME280;57934;51.532;7.684;2023-05-29T09:17:35;62908.66;;;-145.37;100.00
70468;BME280;57934;51.532;7.684;2023-05-29T09:20:01;62908.66;;;-145.37;100.00
70468;BME280;57934;51.532;7.684;2023-05-29T09:22:29;62908.66;;;-145.37;100.00
70468;BME280;57934;51.532;7.684;2023-05-29T09:24:57;62908.66;;;-145.37;100.00
70468;BME280;57934;51.532;7.684;2023-05-29T09:27:25;62908.66;;;-145.37;100.00
70468;BME280;57934;51.532;7.684;2023-05-29T09:29:51;62908.66;;;-145.37;100.00
70468;BME280;57934;51.532;7.684;2023-05-29T09:32:18;62908.66;;;-145.37;100.00
70468;BME280;57934;51.532;7.684;2023-05-29T09:34:45;62908.66;;;-145.37;100.00
70468;BME280;57934;51.532;7.684;2023-05-29T09:37:12;62908.66;;;-145.37;100.00
70468;BME280;57934;51.532;7.684;2023-05-29T09:42:09;62908.66;;;-145.37;100.00
70468;BME280;57934;51.532;7.684;2023-05-29T09:44:35;62908.66;;;-145.37;100.00
70468;BME280;57934;51.532;7.684;2023-05-29T09:47:01;62908.66;;;-145.37;100.00
70468;BME280;57934;51.532;7.684;2023-05-29T09:49:28;62908.66;;;-145.37;100.00
70468;BME280;57934;51.532;7.684;2023-05-29T09:51:54;62908.66;;;-145.37;100.00
70468;BME280;57934;51.532;7.684;2023-05-29T09:54:20;62908.66;;;-145.37;100.00
70468;BME280;57934;51.532;7.684;2023-05-29T09:56:50;62908.66;;;-145.37;100.00
70468;BME280;57934;51.532;7.684;2023-05-29T09:59:25;62908.66;;;-145.37;100.00
70468;BME280;57934;51.532;7.684;2023-05-29T10:02:03;62908.66;;;-145.37;100.00
70468;BME280;57934;51.532;7.684;2023-05-29T10:04:37;62908.66;;;-145.37;100.00
70468;BME280;57934;51.532;7.684;2023-05-29T10:07:29;62908.66;;;-145.37;100.00
70468;BME280;57934;51.532;7.684;2023-05-29T10:09:59;62908.66;;;-145.37;100.00
70468;BME280;57934;51.532;7.684;2023-05-29T10:12:28;62908.66;;;-145.37;100.00
70468;BME280;57934;51.532;7.684;2023-05-29T10:14:56;62908.66;;;-145.37;100.00
70468;BME280;57934;51.532;7.684;2023-05-29T10:17:28;62908.66;;;-145.37;100.00
70468;BME280;57934;51.532;7.684;2023-05-29T10:19:56;62908.66;;;-145.37;100.00
70468;BME280;57934;51.532;7.684;2023-05-29T10:22:25;62908.66;;;-145.37;100.00
70468;BME280;57934;51.532;7.684;2023-05-29T10:24:53;62908.66;;;-145.37;100.00
70468;BME280;57934;51.532;7.684;2023-05-29T10:27:20;62908.66;;;-145.37;100.00
70468;BME280;57934;51.532;7.684;2023-05-29T10:38:15;62908.66;;;-145.37;100.00
70468;BME280;57934;51.532;7.684;2023-05-29T10:40:44;62908.66;;;-145.37;100.00
70468;BME280;57934;51.532;7.684;2023-05-29T10:43:34;62908.66;;;-145.37;100.00
70468;BME280;57934;51.532;7.684;2023-05-29T10:46:01;62908.66;;;-145.37;100.00
70468;BME280;57934;51.532;7.684;2023-05-29T10:48:36;62908.66;;;-145.37;100.00
70468;BME280;57934;51.532;7.684;2023-05-29T10:51:05;62908.66;;;-145.37;100.00
70468;BME280;57934;51.532;7.684;2023-05-29T10:53:32;62908.66;;;-145.37;100.00
70468;BME280;57934;51.532;7.684;2023-05-29T10:56:01;62908.66;;;-145.37;100.00
70468;BME280;57934;51.532;7.684;2023-05-29T10:58:29;62908.66;;;-145.37;100.00
70468;BME280;57934;51.532;7.684;2023-05-29T11:00:56;62908.66;;;-145.37;100.00
70468;BME280;57934;51.532;7.684;2023-05-29T11:03:29;62908.66;;;-145.37;100.00
70468;BME280;57934;51.532;7.684;2023-05-29T11:06:00;62908.66;;;-145.37;100.00
70468;BME280;57934;51.532;7.684;2023-05-29T11:11:32;62908.66;;;-145.37;100.00
70468;BME280;57934;51.532;7.684;2023-05-29T11:14:05;62908.66;;;-145.37;100.00
70468;BME280;57934;51.532;7.684;2023-05-29T11:19:04;62908.66;;;-145.37;100.00
70468;BME280;57934;51.532;7.684;2023-05-29T11:24:01;62908.66;;;-145.37;100.00
70468;BME280;57934;51.532;7.684;2023-05-29T11:26:37;62908.66;;;-145.37;100.00
70468;BME280;57934;51.532;7.684;2023-05-29T11:29:04;62908.66;;;-145.37;100.00
70468;BME280;57934;51.532;7.684;2023-05-29T11:31:33;62908.66;;;-145.37;100.00
70468;BME280;57934;51.532;7.684;2023-05-29T11:34:02;62908.66;;;-145.37;100.00
70468;BME280;57934;51.532;7.684;2023-05-29T11:36:31;62908.66;;;-145.37;100.00
70468;BME280;57934;51.532;7.684;2023-05-29T11:38:58;62908.66;;;-145.37;100.00
70468;BME280;57934;51.532;7.684;2023-05-29T11:41:26;62908.66;;;-145.37;100.00
70468;BME280;57934;51.532;7.684;2023-05-29T11:43:59;62908.66;;;-145.37;100.00
70468;BME280;57934;51.532;7.684;2023-05-29T11:46:28;62908.66;;;-145.37;100.00
70468;BME280;57934;51.532;7.684;2023-05-29T11:48:57;62908.66;;;-145.37;100.00
70468;BME280;57934;51.532;7.684;2023-05-29T11:51:23;62908.66;;;-145.37;100.00
70468;BME280;57934;51.532;7.684;2023-05-29T11:53:50;101092.63;;;22.97;40.05
70468;BME280;57934;51.532;7.684;2023-05-29T11:56:19;101094.56;;;22.26;42.16
70468;BME280;57934;51.532;7.684;2023-05-29T11:58:46;101089.19;;;21.31;45.34
70468;BME280;57934;51.532;7.684;2023-05-29T12:01:16;101089.34;;;21.58;45.53
70468;BME280;57934;51.532;7.684;2023-05-29T12:03:44;101083.97;;;21.97;44.07
70468;BME280;57934;51.532;7.684;2023-05-29T12:06:11;101072.22;;;21.42;44.73
70468;BME280;57934;51.532;7.684;2023-05-29T12:08:38;101074.44;;;21.67;44.96
70468;BME280;57934;51.532;7.684;2023-05-29T12:11:04;101083.53;;;20.65;45.42
70468;BME280;57934;51.532;7.684;2023-05-29T12:13:31;101076.97;;;20.73;46.09
70468;BME280;57934;51.532;7.684;2023-05-29T12:15:59;101077.03;;;20.49;46.88
70468;BME280;57934;51.532;7.684;2023-05-29T12:18:28;101082.25;;;21.02;46.39
70468;BME280;57934;51.532;7.684;2023-05-29T12:21:00;101088.69;;;20.15;47.87
70468;BME280;57934;51.532;7.684;2023-05-29T12:23:28;101087.59;;;20.27;47.52
70468;BME280;57934;51.532;7.684;2023-05-29T12:25:55;101085.53;;;20.18;48.00
70468;BME280;57934;51.532;7.684;2023-05-29T12:28:22;101076.78;;;20.63;46.97
70468;BME280;57934;51.532;7.684;2023-05-29T12:30:49;101068.84;;;20.85;47.51
70468;BME280;57934;51.532;7.684;2023-05-29T12:33:32;101075.91;;;20.91;46.84
70468;BME280;57934;51.532;7.684;2023-05-29T12:36:06;101084.00;;;20.62;47.51
70468;BME280;57934;51.532;7.684;2023-05-29T12:38:33;101086.84;;;20.44;46.93
70468;BME280;57934;51.532;7.684;2023-05-29T12:40:59;101084.06;;;20.51;46.28
70468;BME280;57934;51.532;7.684;2023-05-29T12:43:26;101087.59;;;20.27;47.13
70468;BME280;57934;51.532;7.684;2023-05-29T12:45:55;101086.72;;;20.10;47.76
70468;BME280;57934;51.532;7.684;2023-05-29T12:48:26;101087.84;;;20.14;48.25
70468;BME280;57934;51.532;7.684;2023-05-29T12:50:52;101092.78;;;20.06;47.87
70468;BME280;57934;51.532;7.684;2023-05-29T12:53:18;101089.59;;;20.49;47.72
70468;BME280;57934;51.532;7.684;2023-05-29T12:55:46;101081.22;;;20.86;46.88
70468;BME280;57934;51.532;7.684;2023-05-29T12:58:13;101082.41;;;20.78;46.05
70468;BME280;57934;51.532;7.684;2023-05-29T13:00:42;101075.28;;;21.01;46.78
70468;BME280;57934;51.532;7.684;2023-05-29T13:03:09;101078.41;;;20.81;46.44
70468;BME280;57934;51.532;7.684;2023-05-29T13:05:39;101072.88;;;20.70;47.32
70468;BME280;57934;51.532;7.684;2023-05-29T13:08:06;101080.41;;;21.02;47.12
70468;BME280;57934;51.532;7.684;2023-05-29T13:10:33;101081.03;;;21.09;46.50
70468;BME280;57934;51.532;7.684;2023-05-29T13:13:00;101077.94;;;20.84;45.58
70468;BME280;57934;51.532;7.684;2023-05-29T13:15:26;101087.44;;;20.75;47.46
70468;BME280;57934;51.532;7.684;2023-05-29T13:17:53;101081.75;;;20.71;47.35